createdAt,value
2019-03-31T00:00:37.980Z,99271.48
2019-03-31T00:04:41.718Z,99261.89
2019-03-31T00:08:44.964Z,99261.17
2019-03-31T00:12:48.596Z,99260.94
2019-03-31T00:16:52.687Z,99253.39
2019-03-31T00:20:56.179Z,99244.73
2019-03-31T00:24:59.741Z,99230.84
2019-03-31T00:29:03.159Z,99233.11
2019-03-31T00:33:06.509Z,99217.55
2019-03-31T00:37:09.861Z,99210.45
2019-03-31T00:41:13.276Z,99206.02
2019-03-31T00:45:16.916Z,99205.30
2019-03-31T00:49:20.153Z,99193.89
2019-03-31T00:53:23.567Z,99187.55
2019-03-31T00:57:26.821Z,99186.83
2019-03-31T01:01:37.222Z,99180.69
2019-03-31T01:05:44.757Z,99183.42
2019-03-31T01:09:48.394Z,99184.14
2019-03-31T01:13:51.759Z,99181.76
2019-03-31T01:17:55.483Z,99182.36
2019-03-31T01:21:58.922Z,99179.73
2019-03-31T01:26:02.364Z,99171.14
2019-03-31T01:30:06.477Z,99167.89
2019-03-31T01:34:10.935Z,99160.70
2019-03-31T01:38:15.885Z,99164.56
2019-03-31T01:42:19.737Z,99168.50
2019-03-31T01:46:24.595Z,99165.86
2019-03-31T01:50:28.410Z,99162.31
2019-03-31T01:54:31.635Z,99170.10
2019-03-31T01:58:35.465Z,99167.81
2019-03-31T02:02:38.782Z,99169.03
2019-03-31T02:06:42.093Z,99168.17
2019-03-31T02:10:47.166Z,99170.11
2019-03-31T02:14:50.614Z,99183.63
2019-03-31T02:18:54.220Z,99180.52
2019-03-31T02:22:57.967Z,99184.94
2019-03-31T02:27:02.064Z,99185.66
2019-03-31T02:31:05.514Z,99180.14
2019-03-31T02:35:09.694Z,99184.56
2019-03-31T02:39:13.197Z,99186.20
2019-03-31T02:43:16.548Z,99183.20
2019-03-31T02:47:19.901Z,99175.89
2019-03-31T02:51:23.377Z,99183.78
2019-03-31T02:55:26.978Z,99190.82
2019-03-31T02:59:32.927Z,99198.57
2019-03-31T03:03:40.137Z,99200.83
2019-03-31T03:07:46.314Z,99197.36
2019-03-31T03:11:51.807Z,99198.66
2019-03-31T03:16:19.782Z,99197.94
2019-03-31T03:20:23.571Z,99210.34
2019-03-31T03:24:26.990Z,99203.05
2019-03-31T03:28:30.334Z,99202.12
2019-03-31T03:32:33.729Z,99209.64
2019-03-31T03:36:37.113Z,99214.52
2019-03-31T03:40:40.383Z,99211.65
2019-03-31T03:44:43.732Z,99209.02
2019-03-31T03:48:47.112Z,99201.72
2019-03-31T03:52:50.430Z,99208.67
2019-03-31T03:56:53.728Z,99220.14
2019-03-31T04:00:57.076Z,99219.67
2019-03-31T04:05:00.611Z,99229.34
2019-03-31T04:09:05.809Z,99234.61
2019-03-31T04:13:10.883Z,99241.91
2019-03-31T04:17:14.204Z,99245.38
2019-03-31T04:21:17.734Z,99255.66
2019-03-31T04:25:21.175Z,99255.53
2019-03-31T04:29:24.442Z,99265.24
2019-03-31T04:33:27.981Z,99265.71
2019-03-31T04:37:31.233Z,99272.63
2019-03-31T04:41:34.577Z,99275.77
2019-03-31T04:45:37.845Z,99275.77
2019-03-31T04:49:41.185Z,99279.58
2019-03-31T04:53:44.621Z,99283.91
2019-03-31T04:57:47.960Z,99288.20
2019-03-31T05:01:51.247Z,99297.41
2019-03-31T05:05:54.613Z,99294.77
2019-03-31T05:09:58.032Z,99305.08
2019-03-31T05:14:01.706Z,99308.70
2019-03-31T05:18:05.265Z,99309.33
2019-03-31T05:22:08.619Z,99308.86
2019-03-31T05:26:11.864Z,99313.45
2019-03-31T05:30:15.429Z,99317.52
2019-03-31T05:34:19.649Z,99311.91
2019-03-31T05:38:23.374Z,99319.83
2019-03-31T05:42:26.623Z,99323.41
2019-03-31T05:46:29.924Z,99327.83
2019-03-31T05:50:33.165Z,99327.46
2019-03-31T05:54:36.737Z,99329.74
2019-03-31T05:58:40.268Z,99334.47
2019-03-31T06:02:43.659Z,99349.06
2019-03-31T06:06:46.991Z,99347.92
2019-03-31T06:10:50.512Z,99360.86
2019-03-31T06:14:53.772Z,99358.13
2019-03-31T06:18:57.718Z,99369.76
2019-03-31T06:23:01.155Z,99375.14
2019-03-31T06:27:04.519Z,99382.59
2019-03-31T06:31:09.210Z,99390.42
2019-03-31T06:35:19.557Z,99397.19
2019-03-31T06:39:27.465Z,99397.28
2019-03-31T06:43:34.819Z,99402.55
2019-03-31T06:47:49.072Z,99407.20
2019-03-31T06:52:00.217Z,99418.45
2019-03-31T06:56:10.424Z,99416.80
2019-03-31T07:00:15.614Z,99418.46
2019-03-31T07:04:20.196Z,99416.43
2019-03-31T07:08:23.634Z,99424.58
2019-03-31T07:12:26.978Z,99433.48
2019-03-31T07:16:30.386Z,99435.74
2019-03-31T07:20:33.966Z,99444.89
2019-03-31T07:24:38.539Z,99448.01
2019-03-31T07:28:42.423Z,99446.09
2019-03-31T07:32:46.222Z,99452.58
2019-03-31T07:36:49.565Z,99463.69
2019-03-31T07:40:53.360Z,99470.03
2019-03-31T07:44:56.729Z,99474.34
2019-03-31T07:49:00.166Z,99476.59
2019-03-31T07:53:03.518Z,99481.50
2019-03-31T07:57:07.351Z,99485.13
2019-03-31T08:01:10.983Z,99491.64
2019-03-31T08:05:14.654Z,99494.53
2019-03-31T08:09:18.178Z,99493.84
2019-03-31T08:13:21.624Z,99501.87
2019-03-31T08:17:24.956Z,99507.05
2019-03-31T08:21:28.491Z,99514.56
2019-03-31T08:25:31.806Z,99516.59
2019-03-31T08:29:36.617Z,99511.81
2019-03-31T08:33:39.996Z,99520.95
2019-03-31T08:37:43.307Z,99532.20
2019-03-31T08:41:46.597Z,99537.32
2019-03-31T08:45:49.987Z,99543.31
2019-03-31T08:49:54.394Z,99541.88
2019-03-31T08:53:57.729Z,99552.39
2019-03-31T08:58:01.132Z,99554.68
2019-03-31T09:02:21.875Z,99555.19
2019-03-31T09:06:25.160Z,99559.91
2019-03-31T09:10:28.543Z,99559.82
2019-03-31T09:14:31.929Z,99562.24
2019-03-31T09:18:35.344Z,99571.88
2019-03-31T09:22:39.157Z,99579.48
2019-03-31T09:26:42.490Z,99575.53
2019-03-31T09:30:45.751Z,99583.69
2019-03-31T09:34:49.334Z,99584.02
2019-03-31T09:38:52.592Z,99591.36
2019-03-31T09:42:55.916Z,99597.17
2019-03-31T09:46:59.457Z,99600.77
2019-03-31T09:51:02.894Z,99618.78
2019-03-31T09:55:06.573Z,99625.63
2019-03-31T09:59:10.024Z,99628.09
2019-03-31T10:03:13.287Z,99636.28
2019-03-31T10:07:17.202Z,99637.52
2019-03-31T10:11:20.590Z,99650.00
2019-03-31T10:15:24.106Z,99650.64
2019-03-31T10:19:28.788Z,99654.75
2019-03-31T10:23:33.791Z,99663.46
2019-03-31T10:27:37.033Z,99666.93
2019-03-31T10:31:40.708Z,99669.73
2019-03-31T10:35:43.978Z,99676.95
2019-03-31T10:39:47.295Z,99677.02
2019-03-31T10:43:50.555Z,99683.62
2019-03-31T10:47:53.955Z,99693.42
2019-03-31T10:51:57.254Z,99704.16
2019-03-31T10:56:02.149Z,99704.01
2019-03-31T11:00:06.241Z,99716.53
2019-03-31T11:04:09.561Z,99714.81
2019-03-31T11:08:12.838Z,99721.25
2019-03-31T11:12:16.292Z,99725.48
2019-03-31T11:16:19.563Z,99736.07
2019-03-31T11:20:23.023Z,99741.78
2019-03-31T11:24:26.340Z,99749.67
2019-03-31T11:28:29.909Z,99757.11
2019-03-31T11:32:33.186Z,99761.20
2019-03-31T11:36:36.513Z,99762.52
2019-03-31T11:40:39.824Z,99766.13
2019-03-31T11:44:43.443Z,99767.86
2019-03-31T11:48:47.010Z,99773.52
2019-03-31T11:52:50.363Z,99780.75
2019-03-31T11:56:54.882Z,99793.09
2019-03-31T12:00:58.387Z,99790.95
2019-03-31T12:05:01.657Z,99797.66
2019-03-31T12:09:06.781Z,99798.97
2019-03-31T12:13:10.260Z,99810.41
2019-03-31T12:17:13.616Z,99815.97
2019-03-31T12:21:16.874Z,99818.67
2019-03-31T12:25:20.525Z,99826.09
2019-03-31T12:29:24.275Z,99830.38
2019-03-31T12:33:27.592Z,99842.22
2019-03-31T12:37:41.780Z,99838.29
2019-03-31T12:41:35.933Z,99841.96
2019-03-31T12:45:42.846Z,99848.87
2019-03-31T12:49:44.368Z,99847.72
2019-03-31T12:53:50.977Z,99860.36
2019-03-31T12:57:53.321Z,99864.47
2019-03-31T13:01:57.241Z,99876.98
2019-03-31T13:06:00.941Z,99870.80
2019-03-31T13:10:06.471Z,99883.34
2019-03-31T13:14:10.318Z,99899.08
2019-03-31T13:18:13.942Z,99895.69
2019-03-31T13:22:17.315Z,99902.17
2019-03-31T13:26:20.662Z,99907.67
2019-03-31T13:30:24.180Z,99924.16
2019-03-31T13:34:28.940Z,99918.81
2019-03-31T13:38:32.298Z,99930.17
2019-03-31T13:42:35.853Z,99931.81
2019-03-31T13:46:39.205Z,99943.14
2019-03-31T13:50:42.489Z,99946.94
2019-03-31T13:54:45.816Z,99962.94
2019-03-31T13:58:52.349Z,99965.39
2019-03-31T14:02:54.213Z,99971.03
2019-03-31T14:06:57.484Z,99972.03
2019-03-31T14:11:00.949Z,99959.54
2019-03-31T14:15:18.153Z,99968.00
2019-03-31T14:19:12.929Z,99983.05
2019-03-31T14:23:14.581Z,99995.73
2019-03-31T14:27:18.001Z,100005.52
2019-03-31T14:31:21.751Z,100010.37
2019-03-31T14:35:25.199Z,100017.36
2019-03-31T14:39:28.614Z,100013.89
2019-03-31T14:43:31.911Z,100025.31
2019-03-31T14:47:38.881Z,100035.93
2019-03-31T14:51:42.855Z,100031.14
2019-03-31T14:55:48.610Z,100037.59
2019-03-31T14:59:53.505Z,100033.50
2019-03-31T15:03:57.079Z,100038.56
2019-03-31T15:08:00.846Z,100038.19
2019-03-31T15:12:05.074Z,100037.23
2019-03-31T15:16:08.503Z,100065.09
2019-03-31T15:20:11.922Z,100067.77
2019-03-31T15:24:15.474Z,100087.41
2019-03-31T15:28:18.796Z,100087.63
2019-03-31T15:32:22.194Z,100094.13
2019-03-31T15:36:25.517Z,100101.31
2019-03-31T15:40:28.970Z,100103.52
2019-03-31T15:44:32.392Z,100118.62
2019-03-31T15:48:36.011Z,100122.30
2019-03-31T15:52:39.553Z,100139.98
2019-03-31T15:56:43.239Z,100143.20
2019-03-31T16:00:46.664Z,100150.99
2019-03-31T16:04:50.097Z,100164.52
2019-03-31T16:08:52.565Z,100176.95
2019-03-31T16:12:54.888Z,100188.25
2019-03-31T16:16:57.120Z,100196.80
2019-03-31T16:20:59.730Z,100198.62
2019-03-31T16:25:04.928Z,100204.81
2019-03-31T16:29:07.277Z,100220.70
2019-03-31T16:33:09.491Z,100227.20
2019-03-31T16:37:14.806Z,100239.30
2019-03-31T16:41:17.073Z,100244.65
2019-03-31T16:45:19.742Z,100248.56
2019-03-31T16:49:22.362Z,100256.05
2019-03-31T16:53:24.709Z,100260.45
2019-03-31T16:57:28.170Z,100270.41
2019-03-31T17:01:30.828Z,100277.34
2019-03-31T17:05:33.049Z,100281.94
2019-03-31T17:09:35.553Z,100299.14
2019-03-31T17:13:37.750Z,100306.18
2019-03-31T17:17:40.122Z,100310.52
2019-03-31T17:21:44.263Z,100313.46
2019-03-31T17:25:46.653Z,100319.97
2019-03-31T17:29:48.877Z,100326.71
2019-03-31T17:33:51.692Z,100329.20
2019-03-31T17:37:53.895Z,100345.54
2019-03-31T17:41:56.299Z,100347.68
2019-03-31T17:45:58.808Z,100354.55
2019-03-31T17:50:01.112Z,100357.89
2019-03-31T17:54:06.341Z,100371.53
2019-03-31T17:58:09.060Z,100376.63
2019-03-31T18:02:11.813Z,100385.86
2019-03-31T18:06:14.162Z,100389.31
2019-03-31T18:10:21.135Z,100389.31
2019-03-31T18:14:21.649Z,100399.52
2019-03-31T18:18:23.884Z,100405.41
2019-03-31T18:22:26.221Z,100407.94
2019-03-31T18:26:28.667Z,100412.73
2019-03-31T18:30:30.993Z,100426.11
2019-03-31T18:34:33.210Z,100427.50
2019-03-31T18:38:35.610Z,100437.48
2019-03-31T18:42:37.932Z,100436.55
2019-03-31T18:46:40.713Z,100435.23
2019-03-31T18:50:42.909Z,100446.20
2019-03-31T18:55:16.534Z,100447.05
2019-03-31T18:59:46.924Z,100460.41
2019-03-31T19:04:04.428Z,100470.47
2019-03-31T19:08:24.235Z,100474.49
2019-03-31T19:12:48.682Z,100480.59
2019-03-31T19:17:19.116Z,100479.13
2019-03-31T19:21:33.119Z,100494.97
2019-03-31T19:25:57.176Z,100491.88
2019-03-31T19:30:16.258Z,100507.22
2019-03-31T19:34:38.977Z,100510.16
2019-03-31T19:39:00.121Z,100515.02
2019-03-31T19:43:36.567Z,100519.42
2019-03-31T19:47:47.551Z,100518.42
2019-03-31T19:52:24.914Z,100529.59
2019-03-31T19:56:45.220Z,100534.69
2019-03-31T20:01:12.635Z,100542.96
2019-03-31T20:05:39.275Z,100547.05
2019-03-31T20:09:46.372Z,100550.16
2019-03-31T20:14:05.579Z,100554.96
2019-03-31T20:18:25.502Z,100564.93
2019-03-31T20:22:47.642Z,100571.30
2019-03-31T20:27:08.450Z,100566.34
2019-03-31T20:31:28.408Z,100566.95
2019-03-31T20:36:04.704Z,100576.92
2019-03-31T20:40:35.497Z,100587.23
2019-03-31T20:44:37.705Z,100605.64
2019-03-31T20:48:41.823Z,100607.97
2019-03-31T20:52:44.008Z,100622.99
2019-03-31T20:56:46.330Z,100623.30
2019-03-31T21:00:48.588Z,100625.47
2019-03-31T21:04:51.072Z,100637.52
2019-03-31T21:08:53.353Z,100639.14
2019-03-31T21:12:55.914Z,100650.53
2019-03-31T21:16:58.231Z,100664.14
2019-03-31T21:21:00.519Z,100663.36
2019-03-31T21:25:02.716Z,100668.52
2019-03-31T21:29:04.967Z,100671.30
2019-03-31T21:33:07.153Z,100682.42
2019-03-31T21:37:09.469Z,100689.41
2019-03-31T21:41:14.160Z,100700.52
2019-03-31T21:45:15.995Z,100706.75
2019-03-31T21:49:18.291Z,100712.06
2019-03-31T21:53:20.709Z,100707.61
2019-03-31T21:57:22.925Z,100716.69
2019-03-31T22:01:25.392Z,100724.00
2019-03-31T22:05:27.574Z,100724.41
2019-03-31T22:09:29.843Z,100734.14
2019-03-31T22:13:32.036Z,100742.02
2019-03-31T22:17:34.337Z,100746.77
2019-03-31T22:21:36.525Z,100753.47
2019-03-31T22:25:38.828Z,100760.08
2019-03-31T22:29:41.007Z,100768.04
2019-03-31T22:33:43.291Z,100772.17
2019-03-31T22:37:45.491Z,100781.62
2019-03-31T22:41:49.809Z,100785.45
2019-03-31T22:45:52.202Z,100796.24
2019-03-31T22:49:54.491Z,100804.92
2019-03-31T22:53:57.141Z,100814.98
2019-03-31T22:57:59.383Z,100815.95
2019-03-31T23:02:01.748Z,100821.17
2019-03-31T23:06:04.395Z,100828.91
2019-03-31T23:10:06.733Z,100834.97
2019-03-31T23:14:09.151Z,100829.96
2019-03-31T23:18:11.335Z,100844.23
2019-03-31T23:22:13.618Z,100849.64
2019-03-31T23:26:16.079Z,100865.22
2019-03-31T23:30:18.346Z,100866.45
2019-03-31T23:34:20.569Z,100863.83
2019-03-31T23:38:22.873Z,100877.65
2019-03-31T23:42:26.770Z,100881.45
2019-03-31T23:46:29.151Z,100889.00
2019-03-31T23:50:31.342Z,100897.13
2019-03-31T23:54:33.685Z,100892.56
2019-03-31T23:58:35.899Z,100903.56
